Davis Crossroads, South Carolina
Current Conditions -  °F | °C
As of 11:15 AM on Thursday 30 Oct 2014 (Local Time) from KMNI Reporting Station
Clear Clear  
Wind Chill: 64°   Ceiling: Unl
Heat Index: 64°   Visibility: 10mi
Dew Point: 52°   Wind: 10mph
Humidity: 64%   Direction: 20°NNE
Pressure: 30.02"   Gusts: NA
Location:  33.5851°N, 80.3623°W
Report Text: KMNI 301515Z AUTO 02009KT 10SM CLR 18/11 A3002 RMK AO2
Loading
Personal Weather Stations






























Interactive Weather Map
Tropical Storm Tracking
New forecast layout! Learn more

10-Day Weather Forecast

Advertisements
Track Severe Weather on mobile